Time;durP1;ratioP1;P1;durP2;ratioP2;P2;SDS_P1;SDS_P2;PMS_P1;PMS_P2;Temp;Humidity;BMP_temperature;BMP_pressure;BME280_temperature;BME280_humidity;BME280_pressure;Samples;Min_cycle;Max_cycle;Signal;HPM_P1;HPM_P2
2021/12/05 00:20:00;;;;;;;10.55;4.57;;;;;;;9.06;67.50;99015.25;5032753;28;20029;-77
2021/12/05 00:22:31;;;;;;;5.68;4.10;;;;;;;9.55;67.62;99101.63;5032876;28;20013;-76
2021/12/05 00:25:02;;;;;;;6.32;4.25;;;;;;;9.59;67.49;99088.91;5032724;28;20041;-77
2021/12/05 00:27:50;;;;;;;8.27;4.90;;;;;;;9.43;67.21;99066.19;5032736;28;20025;-77
2021/12/05 00:49:54;;;;;;;7.70;5.32;;;;;;;9.76;67.09;99095.66;5032484;28;20524;-78
2021/12/05 01:15:43;;;;;;;7.55;5.93;;;;;;;9.76;67.16;99091.19;5031427;28;20100;-77
2021/12/05 01:18:14;;;;;;;8.23;6.07;;;;;;;9.33;67.38;99034.84;5031509;28;20029;-76
2021/12/05 01:20:48;;;;;;;11.05;6.82;;;;;;;9.33;67.17;99021.69;5031569;28;20409;-76
2021/12/05 01:26:09;;;;;;;9.30;7.03;;;;;;;9.77;67.71;99079.66;5031635;28;20033;-77
2021/12/05 01:33:56;;;;;;;7.93;7.05;;;;;;;9.76;67.37;99069.28;5032001;28;20052;-77
2021/12/05 01:36:51;;;;;;;11.93;6.35;;;;;;;9.77;67.30;99065.66;5031192;28;20053;-78
2021/12/05 02:43:19;;;;;;;8.55;7.75;;;;;;;9.61;67.06;99016.56;5034792;28;20044;-77
2021/12/05 02:45:35;;;;;;;9.13;6.93;;;;;;;9.68;67.69;99032.50;5035094;28;20048;-78
2021/12/05 02:48:00;;;;;;;8.82;7.57;;;;;;;9.37;67.20;98998.44;5034234;28;20033;-77
2021/12/05 02:50:31;;;;;;;7.78;6.78;;;;;;;9.48;67.44;99005.88;5034355;28;20029;-77
2021/12/05 02:53:03;;;;;;;10.25;7.35;;;;;;;9.61;67.26;99024.47;5034311;28;20414;-77
2021/12/05 02:55:37;;;;;;;8.82;6.95;;;;;;;9.70;67.05;99033.13;5033028;28;20458;-78
2021/12/05 02:58:14;;;;;;;7.00;6.13;;;;;;;9.22;67.16;98953.66;5034079;28;20028;-77
2021/12/05 03:00:46;;;;;;;7.03;6.10;;;;;;;9.70;67.11;99028.66;5034017;28;20021;-77
2021/12/05 03:03:20;;;;;;;6.95;6.03;;;;;;;9.71;66.89;99047.94;5032702;28;20482;-77
2021/12/05 03:05:51;;;;;;;7.88;5.43;;;;;;;9.60;66.80;99014.94;5034181;28;20043;-77
2021/12/05 03:08:17;;;;;;;6.63;5.72;;;;;;;9.44;67.06;98984.34;5034096;28;20101;-78
2021/12/05 03:10:43;;;;;;;9.32;5.60;;;;;;;9.69;66.81;99018.31;5034046;28;20060;-77
2021/12/05 03:13:09;;;;;;;7.15;6.25;;;;;;;9.67;67.20;99028.22;5032764;28;20105;-78
2021/12/05 03:15:35;;;;;;;7.28;6.28;;;;;;;9.67;67.20;99030.84;5033915;28;20517;-78
2021/12/05 03:18:01;;;;;;;8.52;5.85;;;;;;;9.37;66.89;98958.91;5033878;28;20017;-78
2021/12/05 03:20:26;;;;;;;8.93;6.68;;;;;;;9.62;66.85;98993.66;5033860;28;20396;-76
2021/12/05 03:22:52;;;;;;;8.07;6.25;;;;;;;9.25;67.46;98945.41;5033769;28;20025;-76
2021/12/05 03:25:17;;;;;;;8.95;6.25;;;;;;;9.49;67.35;98984.59;5033832;28;20028;-77
2021/12/05 03:27:43;;;;;;;10.50;7.20;;;;;;;9.63;67.19;99016.38;5049047;28;20029;-77
2021/12/05 03:30:14;;;;;;;8.05;5.85;;;;;;;9.44;67.02;98984.34;5048989;28;20078;-77
2021/12/05 03:32:40;;;;;;;6.60;5.10;;;;;;;9.64;67.06;99004.84;5033649;28;20022;-77
2021/12/05 03:35:08;;;;;;;10.40;5.03;;;;;;;9.07;66.75;98908.09;5033469;28;20072;-77
2021/12/05 03:37:34;;;;;;;5.65;5.05;;;;;;;9.34;67.02;98968.00;5033261;28;20438;-76
2021/12/05 03:39:59;;;;;;;6.30;4.97;;;;;;;9.33;67.08;98961.09;5032871;28;20506;-77
2021/12/05 03:42:25;;;;;;;5.00;4.35;;;;;;;9.63;67.00;99004.00;5033248;28;20481;-78
2021/12/05 03:44:50;;;;;;;5.60;4.60;;;;;;;9.45;66.96;98987.78;5033352;28;20030;-78
2021/12/05 03:47:16;;;;;;;7.63;4.95;;;;;;;8.79;67.14;98876.31;5032278;28;20025;-77
2021/12/05 03:49:42;;;;;;;5.68;4.03;;;;;;;9.51;67.19;98990.50;5033377;28;20052;-77
2021/12/05 03:52:12;;;;;;;7.95;5.07;;;;;;;9.57;67.14;99000.31;5048406;28;20017;-77
2021/12/05 03:54:37;;;;;;;6.75;4.50;;;;;;;9.12;66.92;98937.31;5033203;28;20022;-78
2021/12/05 03:57:04;;;;;;;7.07;4.93;;;;;;;9.64;67.26;99007.47;5033069;28;20026;-78
2021/12/05 03:59:31;;;;;;;6.47;4.18;;;;;;;9.62;67.20;98996.28;5033126;28;20418;-78
2021/12/05 04:01:58;;;;;;;6.07;4.63;;;;;;;9.59;67.62;98997.47;5033042;28;20071;-78
2021/12/05 04:04:24;;;;;;;6.50;4.72;;;;;;;9.29;66.93;98959.00;5032956;28;20029;-78
2021/12/05 04:06:50;;;;;;;8.52;5.22;;;;;;;9.17;67.54;98942.88;5033250;28;20026;-78
2021/12/05 04:09:17;;;;;;;6.95;4.80;;;;;;;9.44;67.53;98991.41;5032988;28;20171;-77
2021/12/05 04:11:55;;;;;;;9.85;4.90;;;;;;;9.24;67.80;98963.00;5032880;28;20509;-77
2021/12/05 04:14:22;;;;;;;5.90;4.88;;;;;;;9.15;67.88;98947.50;5032700;28;20032;-78
2021/12/05 04:16:48;;;;;;;5.93;4.80;;;;;;;9.37;67.89;98988.69;5032815;28;20017;-78
2021/12/05 04:19:14;;;;;;;7.32;4.80;;;;;;;9.04;67.34;98929.53;5031604;28;20033;-77
2021/12/05 04:21:41;;;;;;;6.25;4.97;;;;;;;9.21;67.59;98966.00;5032767;28;20156;-77
2021/12/05 04:24:09;;;;;;;9.73;5.13;;;;;;;9.39;67.64;98986.69;5032799;28;20053;-77
2021/12/05 04:26:35;;;;;;;7.35;5.20;;;;;;;8.93;67.71;98909.75;5032403;28;20033;-77
2021/12/05 04:29:04;;;;;;;5.88;5.28;;;;;;;9.56;67.70;99013.66;5032358;28;20014;-78
2021/12/05 04:31:30;;;;;;;8.02;5.30;;;;;;;9.34;67.80;98977.72;5032278;28;20437;-78
2021/12/05 04:33:55;;;;;;;7.75;5.38;;;;;;;9.22;67.99;98966.84;5032280;28;20033;-77
2021/12/05 04:36:21;;;;;;;6.00;4.88;;;;;;;9.08;67.64;98955.31;5032230;28;20073;-76
2021/12/05 04:38:47;;;;;;;5.93;5.22;;;;;;;9.55;68.04;99035.75;5032493;28;20465;-78
2021/12/05 04:41:13;;;;;;;8.82;5.97;;;;;;;9.56;68.08;99038.19;5032405;28;20424;-77
2021/12/05 04:43:39;;;;;;;7.55;5.65;;;;;;;9.01;68.04;98953.59;5032309;28;20018;-76
2021/12/05 04:46:15;;;;;;;7.03;5.90;;;;;;;9.21;68.15;98992.34;5032331;28;20509;-77
2021/12/05 04:48:46;;;;;;;10.20;6.28;;;;;;;9.57;68.03;99041.66;5032288;28;20024;-77
2021/12/05 04:51:12;;;;;;;7.85;5.75;;;;;;;9.61;67.95;99047.38;5046666;28;20025;-77
2021/12/05 04:53:38;;;;;;;9.30;7.70;;;;;;;9.02;67.91;98955.22;5032257;28;20036;-77
2021/12/05 04:56:04;;;;;;;8.07;7.07;;;;;;;9.52;68.30;99042.19;5032003;28;20105;-77
2021/12/05 04:58:30;;;;;;;11.07;9.60;;;;;;;9.52;68.12;99044.84;5031802;28;20573;-78
2021/12/05 05:00:58;;;;;;;8.60;7.80;;;;;;;9.55;67.91;99047.09;5031951;28;20021;-78
2021/12/05 05:03:24;;;;;;;12.02;9.93;;;;;;;9.34;67.85;99022.50;5031861;28;20100;-77
2021/12/05 05:05:58;;;;;;;13.88;11.23;;;;;;;9.62;68.28;99062.19;5031922;28;20029;-78
2021/12/05 05:08:26;;;;;;;13.35;11.07;;;;;;;9.52;68.33;99044.03;5047281;28;20033;-77
2021/12/05 05:10:51;;;;;;;13.40;10.43;;;;;;;9.05;68.27;98971.47;5047278;28;20033;-77
2021/12/05 05:13:17;;;;;;;10.77;8.35;;;;;;;9.42;68.34;99054.03;5031813;28;20025;-77
2021/12/05 05:15:43;;;;;;;11.48;8.93;;;;;;;9.60;68.07;99091.34;5031853;28;20430;-77
2021/12/05 05:18:10;;;;;;;10.68;9.00;;;;;;;9.60;68.64;99083.44;5031709;28;20025;-78
2021/12/05 05:52:16;;;;;;;17.77;13.93;;;;;;;9.56;67.99;99083.00;5031508;28;20029;-77
2021/12/05 05:54:46;;;;;;;16.60;13.88;;;;;;;9.67;68.12;99096.75;5046617;28;20034;-76
2021/12/05 05:57:23;;;;;;;18.05;14.00;;;;;;;9.34;67.77;99054.13;5031321;28;20469;-77
2021/12/05 06:05:12;;;;;;;17.52;14.02;;;;;;;9.60;68.08;99111.63;5034952;28;20040;-77
2021/12/05 06:07:43;;;;;;;17.30;15.48;;;;;;;9.26;68.26;99049.75;5035027;28;20401;-77
2021/12/05 06:10:18;;;;;;;19.73;16.42;;;;;;;9.53;68.32;99112.34;5035110;28;20025;-77
2021/12/05 06:12:44;;;;;;;21.45;16.88;;;;;;;9.52;68.45;99118.63;5035047;28;20022;-77
2021/12/05 06:15:13;;;;;;;20.30;17.27;;;;;;;9.08;68.10;99050.13;5035209;28;20100;-78
2021/12/05 06:17:39;;;;;;;30.35;20.55;;;;;;;9.53;68.12;99128.16;5034916;28;20101;-78
2021/12/05 06:20:11;;;;;;;30.50;19.80;;;;;;;9.14;68.61;99080.19;5035015;28;20421;-78
2021/12/05 06:22:36;;;;;;;23.70;19.27;;;;;;;9.50;68.34;99136.44;5034830;28;20383;-78
2021/12/05 06:25:03;;;;;;;21.88;17.75;;;;;;;9.03;68.72;99072.72;5034774;28;20040;-76
2021/12/05 06:27:29;;;;;;;22.58;17.02;;;;;;;9.03;68.55;99096.41;5034576;28;20030;-77
2021/12/05 06:30:05;;;;;;;21.15;16.67;;;;;;;9.45;68.54;99143.25;5034661;28;20033;-78
2021/12/05 06:36:50;;;;;;;20.70;17.42;;;;;;;9.40;68.78;99140.34;5034704;28;20025;-77
2021/12/05 06:38:34;;;;;;;23.73;18.10;;;;;;;8.86;69.20;99066.75;5034939;28;20064;-76
2021/12/05 06:46:28;;;;;;;24.27;17.23;;;;;;;9.43;68.82;99135.53;5034781;28;20086;-76
2021/12/05 06:48:54;;;;;;;25.67;18.10;;;;;;;8.94;68.88;99055.38;5034377;28;20426;-76
2021/12/05 06:51:23;;;;;;;33.40;23.33;;;;;;;9.48;68.95;99130.53;5034394;28;20045;-77
2021/12/05 06:53:49;;;;;;;31.88;21.90;;;;;;;9.51;68.60;99139.91;5034295;28;20036;-76
2021/12/05 06:56:16;;;;;;;36.88;23.52;;;;;;;9.43;68.60;99124.16;5034395;28;20036;-76
2021/12/05 06:58:42;;;;;;;37.25;25.23;;;;;;;9.09;68.65;99077.25;5034432;28;20418;-77
2021/12/05 07:01:10;;;;;;;36.83;26.30;;;;;;;9.47;68.55;99146.53;5034276;28;20029;-77
2021/12/05 07:03:39;;;;;;;30.90;23.17;;;;;;;9.35;68.67;99147.97;5034261;28;20155;-77
2021/12/05 07:06:11;;;;;;;35.30;23.10;;;;;;;8.82;68.48;99060.22;5032943;28;20033;-77
2021/12/05 07:08:39;;;;;;;41.97;27.70;;;;;;;9.45;68.64;99151.97;5034142;28;20029;-77
2021/12/05 07:18:54;;;;;;;40.35;25.60;;;;;;;9.42;68.94;99146.25;5034238;28;20030;-77
2021/12/05 07:42:30;;;;;;;44.20;28.98;;;;;;;9.46;68.69;99158.88;5034033;28;20087;-77
2021/12/05 07:45:01;;;;;;;43.30;27.95;;;;;;;9.07;69.01;99101.16;5032106;28;20108;-77
2021/12/05 07:47:30;;;;;;;45.97;27.83;;;;;;;9.07;68.87;99098.50;5033223;28;20036;-77
2021/12/05 07:49:57;;;;;;;41.75;27.83;;;;;;;9.17;68.97;99116.69;5033104;28;20025;-77
2021/12/05 07:52:26;;;;;;;52.58;30.92;;;;;;;8.98;68.62;99072.44;5033269;28;20049;-77
2021/12/05 07:55:03;;;;;;;45.17;29.48;;;;;;;8.99;68.49;99077.53;5048667;28;20416;-77
2021/12/05 07:57:37;;;;;;;42.85;26.45;;;;;;;9.42;68.50;99143.59;5033413;28;20025;-77
2021/12/05 08:00:14;;;;;;;55.00;32.63;;;;;;;9.15;68.47;99093.16;5033077;28;20501;-77
2021/12/05 08:16:26;;;;;;;70.95;42.25;;;;;;;9.21;68.40;99071.38;5032628;28;20040;-78
2021/12/05 08:18:52;;;;;;;70.20;44.80;;;;;;;9.44;68.41;99097.63;5032514;28;20474;-77
2021/12/05 08:21:17;;;;;;;62.75;38.75;;;;;;;9.67;68.11;99131.84;5032663;28;20074;-77
2021/12/05 08:23:45;;;;;;;59.53;35.75;;;;;;;9.33;68.53;99078.81;5031406;28;20061;-78
2021/12/05 08:26:16;;;;;;;53.13;33.47;;;;;;;9.70;68.59;99131.47;5032428;28;20057;-78
2021/12/05 08:29:06;;;;;;;50.40;30.23;;;;;;;9.69;68.43;99136.94;5032756;28;20029;-78
2021/12/05 08:32:05;;;;;;;51.10;30.60;;;;;;;9.67;68.36;99134.47;5032688;28;20030;-77
2021/12/05 08:34:49;;;;;;;48.95;28.73;;;;;;;9.59;68.84;99126.63;5032491;28;20044;-76
2021/12/05 08:38:02;;;;;;;44.60;27.98;;;;;;;9.50;68.48;99102.19;5032146;28;20084;-77
2021/12/05 10:10:33;;;;;;;57.55;35.35;;;;;;;10.33;68.11;99061.44;5048917;28;20044;-78
2021/12/05 10:13:24;;;;;;;65.50;38.50;;;;;;;9.95;68.18;99008.03;5037812;28;20033;-77
2021/12/05 10:16:02;;;;;;;59.60;40.00;;;;;;;10.04;68.42;99012.19;5031147;28;20034;-77
2021/12/05 10:27:09;;;;;;;47.03;32.25;;;;;;;10.43;67.59;99045.31;5031076;28;20513;-77
2021/12/05 10:38:49;;;;;;;28.48;18.48;;;;;;;10.07;67.84;98943.25;5031030;28;20091;-78
2021/12/05 10:42:00;;;;;;;22.30;16.30;;;;;;;10.66;66.95;99024.78;5031167;28;20048;-78
2021/12/05 10:44:14;;;;;;;24.20;17.77;;;;;;;10.64;66.88;99032.09;5030471;28;20276;-78
2021/12/05 10:46:46;;;;;;;23.10;16.58;;;;;;;10.64;66.81;99034.72;5030706;28;20426;-78
2021/12/05 10:49:13;;;;;;;28.58;17.77;;;;;;;10.66;66.63;99037.19;5031131;28;20414;-78
2021/12/05 10:51:51;;;;;;;27.67;19.23;;;;;;;10.66;66.60;99027.44;5034323;28;20438;-78
2021/12/05 10:54:22;;;;;;;26.25;18.60;;;;;;;10.54;66.70;99012.31;5034269;28;20026;-78
2021/12/05 10:56:52;;;;;;;27.40;19.17;;;;;;;9.92;67.46;98915.31;5034230;28;20097;-77
2021/12/05 10:59:23;;;;;;;26.25;17.42;;;;;;;10.47;67.26;98999.06;5032794;28;20100;-78
2021/12/05 11:01:51;;;;;;;24.53;17.80;;;;;;;10.54;66.82;99018.41;5034204;28;20033;-77
2021/12/05 11:04:24;;;;;;;25.50;19.85;;;;;;;10.24;66.80;98986.03;5034125;28;20026;-77
2021/12/05 11:06:59;;;;;;;27.40;17.70;;;;;;;10.49;67.47;99020.78;5034103;28;20032;-78
2021/12/05 11:09:36;;;;;;;29.48;19.90;;;;;;;10.54;67.14;99010.47;5049190;28;20030;-77
2021/12/05 11:12:10;;;;;;;28.40;20.02;;;;;;;10.14;67.21;98949.41;5049138;28;20075;-78
2021/12/05 11:14:39;;;;;;;44.25;25.92;;;;;;;10.61;67.23;99006.06;5037227;28;20413;-77
2021/12/05 11:17:08;;;;;;;31.48;20.58;;;;;;;10.47;67.05;98985.84;5049402;28;20420;-78
2021/12/05 11:20:00;;;;;;;30.85;22.70;;;;;;;10.59;67.34;99002.00;5051041;28;20036;-78
2021/12/05 11:22:33;;;;;;;39.88;26.73;;;;;;;10.43;67.24;98974.88;5033692;28;20071;-77
2021/12/05 11:25:28;;;;;;;43.15;30.05;;;;;;;10.59;67.48;98986.97;5042979;28;20044;-78
2021/12/05 11:27:59;;;;;;;46.63;31.23;;;;;;;10.07;67.51;98906.31;5068871;28;20048;-77
2021/12/05 11:30:35;;;;;;;47.28;31.75;;;;;;;10.24;67.38;98919.28;5073744;28;20512;-77
2021/12/05 11:33:13;;;;;;;51.47;32.88;;;;;;;10.67;67.16;98983.38;5055508;28;20410;-78
2021/12/05 11:35:42;;;;;;;46.47;31.27;;;;;;;10.26;67.32;98920.72;5037123;28;20057;-78
2021/12/05 11:38:34;;;;;;;45.72;30.48;;;;;;;10.39;67.20;98941.91;5034596;28;20091;-78
2021/12/05 11:41:10;;;;;;;45.17;29.02;;;;;;;10.70;66.90;98985.63;5033665;28;20032;-78
2021/12/05 11:43:48;;;;;;;54.88;30.65;;;;;;;10.68;67.01;99003.47;5035881;28;20506;-78
2021/12/05 11:46:27;;;;;;;47.28;31.30;;;;;;;10.68;67.18;98977.09;5039510;28;20124;-78
2021/12/05 11:49:02;;;;;;;45.13;27.30;;;;;;;10.70;67.62;98965.31;5048126;28;20029;-77
2021/12/05 11:51:44;;;;;;;38.25;23.73;;;;;;;10.73;67.03;98957.00;5052424;28;20029;-78
2021/12/05 11:54:20;;;;;;;38.28;23.88;;;;;;;10.46;67.22;98900.59;5054820;28;20494;-77
2021/12/05 11:56:58;;;;;;;41.20;26.13;;;;;;;10.81;66.59;98935.72;5043855;28;20037;-78
2021/12/05 11:59:50;;;;;;;44.22;27.90;;;;;;;10.84;66.72;98939.81;5052355;28;20028;-78
2021/12/05 12:02:29;;;;;;;45.33;28.95;;;;;;;10.63;66.69;98911.66;5052753;28;20383;-78
2021/12/05 12:05:08;;;;;;;47.67;29.95;;;;;;;10.50;66.70;98887.81;5052880;28;20029;-78
2021/12/05 12:07:41;;;;;;;49.78;29.90;;;;;;;10.88;66.04;98953.44;5052755;28;20033;-78
2021/12/05 12:10:29;;;;;;;57.25;32.15;;;;;;;10.90;66.53;98959.34;5052829;28;20059;-78
2021/12/05 12:12:59;;;;;;;54.88;33.63;;;;;;;10.70;66.37;98941.56;5035799;28;20025;-77
2021/12/05 12:15:27;;;;;;;49.28;31.85;;;;;;;10.84;66.07;98955.66;5032433;28;20038;-78
2021/12/05 12:18:04;;;;;;;50.22;31.23;;;;;;;10.57;66.51;98909.78;5032675;28;20053;-78
2021/12/05 12:20:30;;;;;;;51.47;31.50;;;;;;;10.57;66.62;98917.72;5032476;28;20400;-78
2021/12/05 12:22:56;;;;;;;51.00;31.90;;;;;;;10.80;66.68;98939.38;5032550;28;20087;-78
2021/12/05 12:25:25;;;;;;;55.47;33.13;;;;;;;10.73;66.58;98925.31;5032531;28;20025;-77
2021/12/05 12:27:51;;;;;;;53.92;33.88;;;;;;;10.35;66.45;98856.22;5032486;28;20025;-78
2021/12/05 12:30:24;;;;;;;55.13;33.42;;;;;;;9.73;66.63;98753.31;5032240;28;20513;-77
2021/12/05 12:32:53;;;;;;;48.40;31.88;;;;;;;10.81;66.88;98930.44;5032315;28;20025;-77
2021/12/05 12:35:24;;;;;;;48.28;29.45;;;;;;;10.67;66.33;98901.53;5032454;28;20550;-77
2021/12/05 12:38:10;;;;;;;42.50;26.02;;;;;;;10.86;65.94;98921.13;5030920;28;20049;-77
2021/12/05 12:40:38;;;;;;;38.95;24.83;;;;;;;10.87;66.17;98917.47;5032312;28;20029;-78
2021/12/05 12:43:06;;;;;;;41.22;26.45;;;;;;;10.48;66.48;98864.25;5032072;28;20025;-77
2021/12/05 12:45:40;;;;;;;44.00;26.05;;;;;;;10.83;66.31;98935.53;5032065;28;20022;-78
2021/12/05 12:48:16;;;;;;;41.20;24.85;;;;;;;10.79;66.43;98939.56;5032303;28;20040;-77
2021/12/05 12:50:51;;;;;;;41.30;25.58;;;;;;;10.71;66.40;98929.97;5032269;28;20040;-78
2021/12/05 12:53:29;;;;;;;38.88;23.40;;;;;;;10.79;66.83;98942.22;5032014;28;20060;-78
2021/12/05 12:56:02;;;;;;;35.95;23.35;;;;;;;10.79;66.56;98945.69;5031977;28;20029;-77
2021/12/05 12:58:36;;;;;;;37.17;24.38;;;;;;;10.82;66.40;98942.66;5030847;28;20441;-78
2021/12/05 13:12:48;;;;;;;42.83;26.77;;;;;;;10.22;66.00;98853.50;5030788;28;20034;-78
2021/12/05 13:15:40;;;;;;;40.20;25.75;;;;;;;10.83;66.26;98946.91;5031508;28;20118;-77
2021/12/05 13:18:23;;;;;;;39.28;27.08;;;;;;;10.64;66.46;98930.94;5031472;28;20028;-78
2021/12/05 13:21:05;;;;;;;45.70;29.33;;;;;;;10.74;66.13;98941.97;5030152;28;20056;-77
2021/12/05 13:23:37;;;;;;;44.72;31.27;;;;;;;10.86;66.46;98950.19;5031501;28;20430;-78
2021/12/05 13:26:23;;;;;;;41.33;27.70;;;;;;;10.86;66.00;98948.34;5031611;28;20034;-78
2021/12/05 13:28:54;;;;;;;39.78;28.35;;;;;;;10.90;66.05;98954.06;5031571;28;20033;-77
2021/12/05 13:31:29;;;;;;;39.75;28.83;;;;;;;10.90;66.12;98946.13;5031388;28;20643;-78
2021/12/05 13:34:24;;;;;;;49.42;33.58;;;;;;;10.91;66.51;98945.94;5031558;28;20033;-77
2021/12/05 13:36:52;;;;;;;43.47;28.85;;;;;;;10.92;65.85;98941.47;5031487;28;20179;-78
2021/12/05 13:39:37;;;;;;;50.10;32.25;;;;;;;10.83;65.78;98931.06;5031417;28;20025;-78
2021/12/05 13:42:16;;;;;;;45.65;30.75;;;;;;;10.85;65.80;98946.72;5031358;28;20022;-78
2021/12/05 13:44:59;;;;;;;46.35;33.17;;;;;;;10.85;66.05;98957.28;5031220;28;20033;-77
2021/12/05 13:47:32;;;;;;;40.90;28.38;;;;;;;10.90;66.68;98948.78;5031111;28;20025;-78
2021/12/05 13:50:16;;;;;;;42.80;29.20;;;;;;;10.95;65.77;98941.09;5031048;28;20033;-77
2021/12/05 13:52:45;;;;;;;42.40;29.55;;;;;;;10.67;65.91;98897.06;5031210;28;20433;-77
2021/12/05 13:55:39;;;;;;;43.70;28.50;;;;;;;10.99;66.13;98943.16;5031329;28;20029;-78
2021/12/05 13:58:29;;;;;;;45.17;30.25;;;;;;;10.97;66.60;98947.00;5031197;28;20017;-78
2021/12/05 14:01:18;;;;;;;51.08;32.50;;;;;;;10.96;66.25;98943.53;5031237;28;20418;-77
2021/12/05 14:03:58;;;;;;;45.03;31.40;;;;;;;10.94;66.37;98948.19;5030939;28;20570;-78
2021/12/05 14:06:30;;;;;;;46.65;29.65;;;;;;;10.92;66.40;98960.78;5031010;28;20029;-78
2021/12/05 14:09:15;;;;;;;42.00;28.13;;;;;;;10.92;66.79;98958.13;5031080;28;20029;-78
2021/12/05 14:11:43;;;;;;;46.83;31.00;;;;;;;10.91;66.01;98958.34;5031102;28;20100;-78
2021/12/05 14:14:10;;;;;;;44.05;29.45;;;;;;;10.91;66.23;98961.78;5030960;28;20522;-77
2021/12/05 14:16:42;;;;;;;37.92;26.85;;;;;;;10.74;66.78;98934.06;5029742;28;20029;-78
2021/12/05 14:19:17;;;;;;;31.35;22.42;;;;;;;10.62;67.03;98920.59;5030943;28;20099;-78
2021/12/05 14:21:49;;;;;;;35.97;22.42;;;;;;;10.79;66.83;98952.78;5029700;28;20102;-77
2021/12/05 14:24:17;;;;;;;30.33;21.58;;;;;;;10.82;67.60;98969.06;5032883;28;20514;-77
2021/12/05 14:26:42;;;;;;;31.65;23.02;;;;;;;10.81;67.42;98983.25;5033454;28;20026;-77
2021/12/05 14:29:18;;;;;;;31.55;22.55;;;;;;;10.75;67.59;98957.63;5033564;28;20040;-77
2021/12/05 14:31:53;;;;;;;35.35;21.63;;;;;;;10.38;67.63;98899.88;5034773;28;20034;-77
2021/12/05 14:34:19;;;;;;;33.42;22.20;;;;;;;10.09;68.10;98843.66;5033573;28;20080;-79
2021/12/05 14:36:48;;;;;;;35.38;23.08;;;;;;;10.68;67.50;98940.13;5034744;28;20045;-78
2021/12/05 14:39:19;;;;;;;37.08;24.33;;;;;;;10.62;67.86;98925.06;5034550;28;20070;-78
2021/12/05 14:41:47;;;;;;;37.33;24.30;;;;;;;10.28;68.08;98867.75;5033230;28;20067;-78
2021/12/05 14:44:15;;;;;;;36.42;24.50;;;;;;;10.76;67.79;98948.69;5033250;28;20330;-77
2021/12/05 14:46:46;;;;;;;34.58;23.05;;;;;;;10.83;68.14;98961.94;5034396;28;20025;-77
2021/12/05 14:49:12;;;;;;;35.33;23.98;;;;;;;10.81;67.99;98956.03;5034505;28;20029;-77
2021/12/05 14:51:40;;;;;;;33.75;22.77;;;;;;;10.79;68.03;98960.69;5034545;28;20033;-78
2021/12/05 14:54:07;;;;;;;41.35;25.05;;;;;;;10.69;68.63;98939.94;5034252;28;20026;-78
2021/12/05 14:56:37;;;;;;;38.28;26.08;;;;;;;10.36;68.95;98896.63;5034212;28;20087;-77
2021/12/05 14:59:06;;;;;;;42.17;27.08;;;;;;;10.53;69.43;98929.66;5034184;28;20033;-77
2021/12/05 15:01:33;;;;;;;44.40;25.45;;;;;;;10.38;69.33;98905.16;5033957;28;20025;-78
2021/12/05 15:04:00;;;;;;;43.42;25.75;;;;;;;10.34;69.45;98894.19;5034132;28;20018;-78
2021/12/05 15:06:34;;;;;;;47.35;27.42;;;;;;;10.07;69.14;98858.84;5032798;28;20037;-77
2021/12/05 15:09:01;;;;;;;57.70;36.42;;;;;;;10.69;69.83;98958.41;5032985;28;20029;-78
2021/12/05 15:11:26;;;;;;;56.17;35.20;;;;;;;10.42;69.91;98909.91;5034105;28;20041;-77
2021/12/05 15:14:04;;;;;;;59.92;35.47;;;;;;;10.30;69.91;98897.41;5033825;28;20517;-77
2021/12/05 15:16:30;;;;;;;50.70;31.58;;;;;;;10.70;70.09;98965.31;5034016;28;20037;-78
2021/12/05 15:18:55;;;;;;;48.45;29.33;;;;;;;10.69;69.71;98966.31;5033893;28;20032;-78
2021/12/05 15:21:21;;;;;;;45.05;29.45;;;;;;;10.43;69.85;98927.38;5033682;28;20078;-78
2021/12/05 15:23:47;;;;;;;48.97;28.85;;;;;;;10.51;70.67;98942.25;5033655;28;20029;-76
2021/12/05 15:26:14;;;;;;;46.65;28.02;;;;;;;9.91;70.90;98845.94;5033619;28;20083;-78
2021/12/05 15:28:40;;;;;;;44.50;25.65;;;;;;;10.28;70.63;98908.13;5033785;28;20581;-77
2021/12/05 15:31:06;;;;;;;60.08;29.42;;;;;;;10.62;70.39;98956.72;5033773;28;20047;-78
2021/12/05 15:33:34;;;;;;;48.22;27.77;;;;;;;10.64;70.92;98965.28;5032369;28;20091;-77
2021/12/05 15:36:00;;;;;;;52.63;30.95;;;;;;;10.24;71.03;98916.63;5032512;28;20442;-77
2021/12/05 15:38:28;;;;;;;47.47;26.58;;;;;;;10.37;71.11;98933.38;5033656;28;20033;-78
2021/12/05 15:41:09;;;;;;;45.90;26.92;;;;;;;10.55;71.11;98958.50;5033617;28;20052;-78
2021/12/05 15:43:38;;;;;;;47.95;26.35;;;;;;;10.30;71.50;98924.59;5033552;28;20014;-77
2021/12/05 15:46:05;;;;;;;45.50;28.48;;;;;;;10.66;70.89;98974.63;5033481;28;20029;-77
2021/12/05 15:48:34;;;;;;;47.95;27.88;;;;;;;10.70;70.69;98978.53;5031953;28;20026;-78
2021/12/05 15:51:02;;;;;;;50.35;27.33;;;;;;;10.33;71.16;98918.13;5033256;28;20021;-78
2021/12/05 15:53:31;;;;;;;47.80;31.35;;;;;;;10.68;71.78;98979.72;5033350;28;20061;-77
2021/12/05 15:56:03;;;;;;;48.58;28.50;;;;;;;10.45;71.47;98940.38;5033195;28;20029;-77
2021/12/05 15:58:40;;;;;;;50.00;28.75;;;;;;;10.35;71.12;98927.47;5033044;28;20491;-78
2021/12/05 16:01:05;;;;;;;48.55;29.02;;;;;;;10.68;71.82;98977.91;5032740;28;20021;-78
2021/12/05 16:03:47;;;;;;;52.05;30.23;;;;;;;10.72;71.24;98984.41;5031721;28;20482;-77
2021/12/05 16:06:16;;;;;;;47.75;26.98;;;;;;;10.28;71.32;98912.59;5033093;28;20028;-77
2021/12/05 16:08:43;;;;;;;47.67;27.73;;;;;;;10.72;71.57;98987.06;5033051;28;20025;-78
2021/12/05 16:11:12;;;;;;;44.95;27.17;;;;;;;10.72;71.54;98973.03;5033095;28;20422;-78
2021/12/05 16:13:41;;;;;;;48.97;27.45;;;;;;;10.72;71.53;98986.25;5032761;28;20026;-78
2021/12/05 16:16:20;;;;;;;41.53;24.45;;;;;;;10.39;71.77;98927.91;5031585;28;20087;-78
2021/12/05 16:18:49;;;;;;;41.15;26.27;;;;;;;10.32;71.56;98916.50;5032935;28;20034;-77
2021/12/05 16:21:28;;;;;;;44.72;26.08;;;;;;;10.74;71.46;98976.31;5032837;28;20461;-77
2021/12/05 16:24:08;;;;;;;43.53;26.58;;;;;;;10.12;71.06;98872.28;5032704;28;20032;-78
2021/12/05 16:26:34;;;;;;;57.42;29.65;;;;;;;10.72;71.52;98965.94;5032561;28;20025;-78
2021/12/05 16:29:16;;;;;;;46.60;27.45;;;;;;;10.43;71.44;98927.38;5031515;28;20033;-78
2021/12/05 16:31:52;;;;;;;46.78;27.73;;;;;;;10.67;71.99;98960.41;5031304;28;20033;-78
2021/12/05 16:34:22;;;;;;;47.20;27.58;;;;;;;10.71;72.25;98974.88;5031102;28;20068;-78
2021/12/05 16:37:07;;;;;;;60.08;32.88;;;;;;;10.44;71.52;98939.56;5032028;28;20037;-78
2021/12/05 16:39:39;;;;;;;55.10;32.35;;;;;;;10.74;71.66;98977.13;5032437;28;20040;-77
2021/12/05 16:42:12;;;;;;;44.78;26.48;;;;;;;10.72;71.79;98978.31;5032452;28;20029;-78
2021/12/05 16:44:41;;;;;;;58.10;33.13;;;;;;;10.32;71.72;98913.84;5031029;28;20029;-78
2021/12/05 16:47:16;;;;;;;64.45;36.40;;;;;;;10.51;72.32;98944.88;5032226;28;20044;-78
2021/12/05 16:49:50;;;;;;;62.47;33.33;;;;;;;10.10;71.49;98879.56;5032306;28;20025;-78
2021/12/05 16:52:20;;;;;;;61.70;32.33;;;;;;;10.72;72.03;98978.31;5032323;28;20103;-78
2021/12/05 16:54:55;;;;;;;66.53;37.67;;;;;;;10.55;71.82;98950.59;5032163;28;20017;-77
2021/12/05 16:57:28;;;;;;;68.93;36.65;;;;;;;10.56;72.12;98957.50;5032131;28;20032;-78
2021/12/05 16:59:57;;;;;;;75.43;39.97;;;;;;;10.72;71.76;98973.84;5032173;28;20439;-77
2021/12/05 17:02:22;;;;;;;65.90;37.53;;;;;;;10.73;72.54;98986.06;5031931;28;20121;-78
2021/12/05 17:05:01;;;;;;;65.13;37.03;;;;;;;10.73;72.43;98991.34;5031813;28;20538;-78
2021/12/05 17:07:45;;;;;;;59.53;33.72;;;;;;;10.74;72.05;98998.25;5031855;28;20045;-77
2021/12/05 17:10:33;;;;;;;69.05;39.42;;;;;;;10.58;71.94;98964.22;5031973;28;20095;-77
2021/12/05 17:13:13;;;;;;;67.00;37.97;;;;;;;10.74;72.66;98998.25;5031587;28;20047;-79
2021/12/05 17:15:47;;;;;;;63.55;36.35;;;;;;;10.77;72.15;98987.31;5030564;28;20174;-78
2021/12/05 17:18:15;;;;;;;59.88;34.17;;;;;;;10.71;72.13;98981.97;5031574;28;20032;-77
2021/12/05 17:20:48;;;;;;;50.80;28.15;;;;;;;10.05;72.18;98889.88;5031787;28;20037;-78
2021/12/05 17:23:25;;;;;;;51.70;28.83;;;;;;;10.73;72.63;99003.72;5031948;28;20029;-78
2021/12/05 17:25:53;;;;;;;52.28;30.02;;;;;;;10.57;72.05;98967.88;5031639;28;20025;-77
2021/12/05 17:28:40;;;;;;;53.80;29.42;;;;;;;10.69;73.21;98995.38;5031726;28;20075;-78